HZA42 OERK-LMML
Flight info
| Callsign | HZA42 |
|---|---|
| Flight time | N/A |
| Altitude | 40000 |
| Route | LONIB T503 TAMRO N318 NEVOL R23 ODBUL Q163 GENEX L53 STEPA M1 KAVOS UM1 SIT UM978 DEMAG DCT BINKO DCT AGARI |
| Aircraft | A346/H-SDE2E3FGHIJ3J4J5M1RWXY/LB1D1 |
Departure
| Time | 2026-05-01 14:10 |
|---|---|
| Airport | King Khalid International Airport (OERK) |
Arrival
| Time | N/A |
|---|---|
| Airport | Malta International Airport (LMML) |
| Time | Latitude | Longitude | Altitude | Speed | Heading |
|---|---|---|---|---|---|
| 2026-05-01 13:26 | 24.95849 | 46.69051 | 2039 ft | 0 kts | 60° |
| 2026-05-01 13:30 | 24.95859 | 46.69069 | 2042 ft | 0 kts | 60° |
| 2026-05-01 13:47 | 24.95849 | 46.69051 | 2039 ft | 4 kts | 60° |
| 2026-05-01 14:02 | 24.95839 | 46.69032 | 2046 ft | 7 kts | 60° |
| 2026-05-01 14:02 | 24.95818 | 46.68982 | 2042 ft | 5 kts | 103° |
| 2026-05-01 14:03 | 24.95853 | 46.68952 | 2040 ft | 3 kts | 150° |
| 2026-05-01 14:03 | 24.95852 | 46.68953 | 2040 ft | 0 kts | 150° |
| 2026-05-01 14:03 | 24.95843 | 46.68959 | 2041 ft | 3 kts | 149° |
| 2026-05-01 14:04 | 24.95815 | 46.68977 | 2040 ft | 6 kts | 149° |
| 2026-05-01 14:04 | 24.95769 | 46.69006 | 2040 ft | 9 kts | 150° |
| 2026-05-01 14:04 | 24.95705 | 46.69044 | 2047 ft | 11 kts | 163° |
| 2026-05-01 14:04 | 24.95637 | 46.69006 | 2047 ft | 13 kts | 229° |
| 2026-05-01 14:05 | 24.95584 | 46.68917 | 2043 ft | 15 kts | 240° |
| 2026-05-01 14:05 | 24.95559 | 46.68816 | 2047 ft | 14 kts | 297° |
| 2026-05-01 14:05 | 24.95646 | 46.68749 | 2040 ft | 17 kts | 332° |
| 2026-05-01 14:05 | 24.95755 | 46.68680 | 2040 ft | 19 kts | 330° |
| 2026-05-01 14:06 | 24.95878 | 46.68601 | 2048 ft | 21 kts | 330° |
| 2026-05-01 14:06 | 24.96010 | 46.68518 | 2046 ft | 23 kts | 330° |
| 2026-05-01 14:06 | 24.96154 | 46.68428 | 2043 ft | 24 kts | 330° |
| 2026-05-01 14:06 | 24.96306 | 46.68333 | 2045 ft | 26 kts | 330° |
| 2026-05-01 14:07 | 24.96463 | 46.68234 | 2046 ft | 27 kts | 330° |
| 2026-05-01 14:07 | 24.96627 | 46.68132 | 2044 ft | 28 kts | 330° |
| 2026-05-01 14:07 | 24.96797 | 46.68025 | 2049 ft | 28 kts | 330° |
| 2026-05-01 14:08 | 24.97124 | 46.67818 | 2050 ft | 15 kts | 330° |
| 2026-05-01 14:08 | 24.97186 | 46.67728 | 2051 ft | 17 kts | 265° |
| 2026-05-01 14:08 | 24.97133 | 46.67607 | 2051 ft | 19 kts | 240° |
| 2026-05-01 14:08 | 24.97074 | 46.67518 | 2049 ft | 10 kts | 186° |
| 2026-05-01 14:09 | 24.97013 | 46.67542 | 2050 ft | 0 kts | 149° |
| 2026-05-01 14:09 | 24.96915 | 46.67605 | 2050 ft | 47 kts | 150° |
| 2026-05-01 14:09 | 24.96397 | 46.67931 | 2049 ft | 124 kts | 150° |
| 2026-05-01 14:09 | 24.95447 | 46.68539 | 2075 ft | 186 kts | 150° |
| 2026-05-01 14:10 | 24.94316 | 46.69270 | 2921 ft | 188 kts | 151° |
| 2026-05-01 14:10 | 24.93147 | 46.69904 | 3931 ft | 188 kts | 165° |
| 2026-05-01 14:10 | 24.91841 | 46.70264 | 4759 ft | 201 kts | 165° |
| 2026-05-01 14:10 | 24.90470 | 46.70708 | 5300 ft | 211 kts | 164° |
| 2026-05-01 14:11 | 24.89001 | 46.71173 | 5668 ft | 228 kts | 164° |
| 2026-05-01 14:11 | 24.85689 | 46.72176 | 6367 ft | 267 kts | 165° |
| 2026-05-01 14:11 | 24.83965 | 46.72988 | 6895 ft | 279 kts | 143° |
| 2026-05-01 14:12 | 24.82700 | 46.74616 | 7680 ft | 283 kts | 118° |
| 2026-05-01 14:12 | 24.82181 | 46.76708 | 8501 ft | 288 kts | 93° |
| 2026-05-01 14:12 | 24.82389 | 46.78923 | 9284 ft | 293 kts | 83° |
| 2026-05-01 14:12 | 24.82803 | 46.81145 | 10000 ft | 300 kts | 74° |
| 2026-05-01 14:13 | 24.83651 | 46.83289 | 10555 ft | 314 kts | 61° |
| 2026-05-01 14:13 | 24.84470 | 46.84642 | 10810 ft | 326 kts | 54° |
| 2026-05-01 14:13 | 24.86382 | 46.87415 | 11284 ft | 351 kts | 52° |
| 2026-05-01 14:13 | 24.87921 | 46.89598 | 11627 ft | 370 kts | 52° |
| 2026-05-01 14:14 | 24.89533 | 46.91903 | 11959 ft | 388 kts | 52° |
| 2026-05-01 14:14 | 24.91191 | 46.94299 | 12285 ft | 407 kts | 52° |
| 2026-05-01 14:14 | 24.92941 | 46.96845 | 12685 ft | 422 kts | 52° |
| 2026-05-01 14:14 | 24.94723 | 46.99447 | 13387 ft | 427 kts | 52° |
| 2026-05-01 14:15 | 24.96516 | 47.02071 | 14205 ft | 430 kts | 52° |
| 2026-05-01 14:15 | 24.98416 | 47.04653 | 14954 ft | 434 kts | 43° |
| 2026-05-01 14:15 | 25.00874 | 47.06495 | 15658 ft | 433 kts | 21° |
| 2026-05-01 14:15 | 25.03771 | 47.07308 | 16471 ft | 427 kts | 1° |
| 2026-05-01 14:16 | 25.06713 | 47.07026 | 17238 ft | 421 kts | 341° |
| 2026-05-01 14:16 | 25.09474 | 47.05975 | 18042 ft | 421 kts | 335° |
| 2026-05-01 14:16 | 25.12223 | 47.04812 | 18759 ft | 425 kts | 334° |
| 2026-05-01 14:16 | 25.14951 | 47.03511 | 19449 ft | 428 kts | 331° |
| 2026-05-01 14:17 | 25.17618 | 47.02047 | 20146 ft | 430 kts | 328° |
| 2026-05-01 14:17 | 25.20245 | 47.00429 | 20821 ft | 433 kts | 326° |
| 2026-05-01 14:17 | 25.22867 | 46.98773 | 21472 ft | 436 kts | 326° |
| 2026-05-01 14:17 | 25.25513 | 46.97094 | 22109 ft | 440 kts | 326° |
| 2026-05-01 14:18 | 25.28179 | 46.95405 | 22727 ft | 443 kts | 326° |
| 2026-05-01 14:18 | 25.30868 | 46.93704 | 23320 ft | 447 kts | 326° |
| 2026-05-01 14:18 | 25.33546 | 46.92011 | 23886 ft | 451 kts | 326° |
| 2026-05-01 14:18 | 25.35391 | 46.90846 | 24264 ft | 453 kts | 326° |
| 2026-05-01 14:19 | 25.39032 | 46.88546 | 24996 ft | 457 kts | 326° |
| 2026-05-01 14:19 | 25.41806 | 46.86794 | 25558 ft | 460 kts | 326° |
| 2026-05-01 14:19 | 25.44595 | 46.85029 | 26084 ft | 463 kts | 325° |
| 2026-05-01 14:19 | 25.47417 | 46.83244 | 26626 ft | 466 kts | 325° |
| 2026-05-01 14:20 | 25.50239 | 46.81455 | 27164 ft | 469 kts | 325° |
| 2026-05-01 14:20 | 25.55391 | 46.77131 | 28195 ft | 462 kts | 309° |
| 2026-05-01 14:20 | 25.57420 | 46.74384 | 28729 ft | 459 kts | 300° |
| 2026-05-01 14:21 | 25.59034 | 46.71362 | 29436 ft | 452 kts | 294° |
| 2026-05-01 14:21 | 25.60474 | 46.68291 | 30294 ft | 446 kts | 293° |
| 2026-05-01 14:21 | 25.61885 | 46.65246 | 31131 ft | 441 kts | 292° |
| 2026-05-01 14:22 | 25.64665 | 46.59222 | 32617 ft | 434 kts | 291° |
| 2026-05-01 14:22 | 25.66031 | 46.56250 | 33286 ft | 431 kts | 291° |
| 2026-05-01 14:22 | 25.67370 | 46.53334 | 33926 ft | 428 kts | 290° |
| 2026-05-01 14:22 | 25.68715 | 46.50404 | 34536 ft | 424 kts | 290° |
| 2026-05-01 14:23 | 25.70047 | 46.47490 | 35080 ft | 422 kts | 289° |
| 2026-05-01 14:23 | 25.71377 | 46.44579 | 35557 ft | 421 kts | 289° |
| 2026-05-01 14:23 | 25.72706 | 46.41666 | 35978 ft | 421 kts | 289° |
| 2026-05-01 14:23 | 25.74031 | 46.38766 | 36378 ft | 421 kts | 289° |
| 2026-05-01 14:24 | 25.75359 | 46.35861 | 36739 ft | 421 kts | 289° |
| 2026-05-01 14:24 | 25.76687 | 46.32953 | 37106 ft | 421 kts | 289° |
| 2026-05-01 14:24 | 25.78012 | 46.30054 | 37492 ft | 420 kts | 289° |
| 2026-05-01 14:24 | 25.79335 | 46.27157 | 37866 ft | 420 kts | 289° |
| 2026-05-01 14:25 | 25.80639 | 46.24296 | 38232 ft | 420 kts | 289° |
| 2026-05-01 14:25 | 25.81958 | 46.21401 | 38558 ft | 420 kts | 289° |
| 2026-05-01 14:25 | 25.83281 | 46.18496 | 38845 ft | 422 kts | 289° |
| 2026-05-01 14:25 | 25.84611 | 46.15576 | 39128 ft | 423 kts | 289° |
| 2026-05-01 14:26 | 25.85941 | 46.12655 | 39423 ft | 424 kts | 289° |
| 2026-05-01 14:26 | 25.88612 | 46.06787 | 39889 ft | 427 kts | 289° |
| 2026-05-01 14:27 | 25.91294 | 46.00892 | 39905 ft | 427 kts | 289° |
| 2026-05-01 14:27 | 25.93968 | 45.95010 | 39908 ft | 425 kts | 289° |
| 2026-05-01 14:28 | 25.97947 | 45.86240 | 39909 ft | 424 kts | 289° |
| 2026-05-01 14:28 | 26.00606 | 45.80367 | 39906 ft | 424 kts | 289° |
| 2026-05-01 14:29 | 26.03262 | 45.74492 | 39902 ft | 424 kts | 289° |
| 2026-05-01 14:30 | 26.08550 | 45.62778 | 39900 ft | 424 kts | 289° |
| 2026-05-01 14:31 | 26.12531 | 45.53962 | 39899 ft | 425 kts | 290° |
| 2026-05-01 14:31 | 26.15537 | 45.48235 | 39897 ft | 430 kts | 295° |
| 2026-05-01 14:32 | 26.19035 | 45.42809 | 39891 ft | 436 kts | 300° |
| 2026-05-01 14:32 | 26.23065 | 45.37675 | 39891 ft | 443 kts | 305° |
| 2026-05-01 14:33 | 26.27525 | 45.32862 | 39890 ft | 447 kts | 307° |
| 2026-05-01 14:33 | 26.32060 | 45.28120 | 39890 ft | 447 kts | 307° |
| 2026-05-01 14:34 | 26.36596 | 45.23366 | 39882 ft | 447 kts | 307° |
| 2026-05-01 14:34 | 26.41126 | 45.18611 | 39881 ft | 447 kts | 307° |
| 2026-05-01 14:35 | 26.45659 | 45.13850 | 39882 ft | 446 kts | 307° |
| 2026-05-01 14:35 | 26.50180 | 45.09095 | 39881 ft | 446 kts | 307° |
| 2026-05-01 14:36 | 26.54674 | 45.04365 | 39876 ft | 446 kts | 307° |
| 2026-05-01 14:36 | 26.59189 | 44.99605 | 39872 ft | 446 kts | 307° |
| 2026-05-01 14:37 | 26.63707 | 44.94836 | 39872 ft | 445 kts | 307° |
| 2026-05-01 14:37 | 26.68216 | 44.90075 | 39872 ft | 445 kts | 307° |
| 2026-05-01 14:38 | 26.72713 | 44.85321 | 39871 ft | 445 kts | 307° |
| 2026-05-01 14:38 | 26.77214 | 44.80557 | 39871 ft | 444 kts | 307° |
| 2026-05-01 14:39 | 26.81704 | 44.75787 | 39872 ft | 444 kts | 307° |
| 2026-05-01 14:39 | 26.86160 | 44.71049 | 39872 ft | 444 kts | 307° |
| 2026-05-01 14:40 | 26.90648 | 44.66276 | 39872 ft | 444 kts | 307° |
| 2026-05-01 14:40 | 26.95128 | 44.61502 | 39871 ft | 444 kts | 307° |
| 2026-05-01 14:41 | 26.99608 | 44.56723 | 39873 ft | 443 kts | 307° |
| 2026-05-01 14:41 | 27.03319 | 44.52757 | 39871 ft | 443 kts | 307° |
| 2026-05-01 14:42 | 27.08515 | 44.47192 | 39872 ft | 443 kts | 307° |
| 2026-05-01 14:42 | 27.12254 | 44.43185 | 39871 ft | 443 kts | 307° |
| 2026-05-01 14:43 | 27.16715 | 44.38399 | 39872 ft | 443 kts | 306° |
| 2026-05-01 14:43 | 27.21147 | 44.33643 | 39872 ft | 442 kts | 307° |
| 2026-05-01 14:44 | 27.25586 | 44.28879 | 39870 ft | 441 kts | 306° |
| 2026-05-01 14:44 | 27.32245 | 44.21720 | 39873 ft | 441 kts | 306° |
| 2026-05-01 14:45 | 27.38866 | 44.14593 | 39873 ft | 440 kts | 306° |
| 2026-05-01 14:46 | 27.43296 | 44.09817 | 39871 ft | 440 kts | 306° |
| 2026-05-01 14:46 | 27.49924 | 44.02660 | 39872 ft | 439 kts | 306° |
| 2026-05-01 14:47 | 27.54334 | 43.97891 | 39872 ft | 438 kts | 306° |
| 2026-05-01 14:48 | 27.60927 | 43.90752 | 39871 ft | 437 kts | 306° |
| 2026-05-01 14:48 | 27.67484 | 43.83639 | 39872 ft | 437 kts | 306° |
| 2026-05-01 14:49 | 27.76255 | 43.74106 | 39873 ft | 437 kts | 306° |
| 2026-05-01 14:50 | 27.84956 | 43.64561 | 39880 ft | 434 kts | 304° |
| 2026-05-01 14:51 | 27.91162 | 43.57107 | 39891 ft | 434 kts | 303° |
| 2026-05-01 14:52 | 27.97367 | 43.49621 | 39890 ft | 434 kts | 303° |
| 2026-05-01 14:53 | 28.03563 | 43.42137 | 39890 ft | 434 kts | 303° |
| 2026-05-01 14:53 | 28.07662 | 43.37180 | 39891 ft | 433 kts | 303° |
| 2026-05-01 14:54 | 28.11783 | 43.32189 | 39891 ft | 433 kts | 303° |
| 2026-05-01 14:54 | 28.15909 | 43.27184 | 39891 ft | 434 kts | 303° |
| 2026-05-01 14:55 | 28.20026 | 43.22188 | 39890 ft | 432 kts | 303° |
| 2026-05-01 14:55 | 28.24133 | 43.17197 | 39890 ft | 432 kts | 303° |
| 2026-05-01 14:56 | 28.28216 | 43.12229 | 39891 ft | 432 kts | 303° |
| 2026-05-01 14:56 | 28.32324 | 43.07225 | 39891 ft | 432 kts | 303° |
| 2026-05-01 14:57 | 28.36430 | 43.02214 | 39891 ft | 433 kts | 303° |
| 2026-05-01 14:57 | 28.42558 | 42.94730 | 39890 ft | 432 kts | 303° |
| 2026-05-01 14:58 | 28.46671 | 42.89699 | 39891 ft | 432 kts | 303° |
| 2026-05-01 14:58 | 28.50772 | 42.84676 | 39891 ft | 432 kts | 303° |
| 2026-05-01 14:59 | 28.54868 | 42.79655 | 39891 ft | 432 kts | 303° |
| 2026-05-01 14:59 | 28.58961 | 42.74630 | 39891 ft | 432 kts | 303° |
| 2026-05-01 15:00 | 28.64881 | 42.66913 | 39891 ft | 426 kts | 298° |
| 2026-05-01 15:01 | 28.68308 | 42.61432 | 39890 ft | 423 kts | 296° |
| 2026-05-01 15:01 | 28.71627 | 42.55938 | 39890 ft | 423 kts | 296° |
| 2026-05-01 15:02 | 28.74966 | 42.50396 | 39890 ft | 423 kts | 296° |
| 2026-05-01 15:02 | 28.78296 | 42.44860 | 39890 ft | 423 kts | 296° |
| 2026-05-01 15:03 | 28.81624 | 42.39321 | 39891 ft | 423 kts | 296° |
| 2026-05-01 15:03 | 28.84954 | 42.33769 | 39890 ft | 423 kts | 296° |
| 2026-05-01 15:04 | 28.88283 | 42.28213 | 39891 ft | 423 kts | 296° |
| 2026-05-01 15:04 | 28.91611 | 42.22652 | 39891 ft | 423 kts | 296° |
| 2026-05-01 15:05 | 28.94914 | 42.17124 | 39889 ft | 423 kts | 296° |
| 2026-05-01 15:05 | 28.98238 | 42.11552 | 39890 ft | 424 kts | 296° |
| 2026-05-01 15:06 | 29.01561 | 42.05977 | 39891 ft | 424 kts | 296° |
| 2026-05-01 15:06 | 29.04877 | 42.00406 | 39889 ft | 423 kts | 296° |
| 2026-05-01 15:07 | 29.08195 | 41.94822 | 39898 ft | 423 kts | 296° |
| 2026-05-01 15:07 | 29.11507 | 41.89243 | 39899 ft | 424 kts | 296° |
| 2026-05-01 15:08 | 29.14801 | 41.83689 | 39900 ft | 423 kts | 296° |
| 2026-05-01 15:08 | 29.18110 | 41.78098 | 39900 ft | 424 kts | 296° |
| 2026-05-01 15:09 | 29.21423 | 41.72496 | 39900 ft | 424 kts | 296° |
| 2026-05-01 15:09 | 29.24729 | 41.66897 | 39899 ft | 424 kts | 296° |
| 2026-05-01 15:10 | 29.28036 | 41.61289 | 39899 ft | 424 kts | 296° |
| 2026-05-01 15:10 | 29.32992 | 41.52868 | 39899 ft | 424 kts | 296° |
| 2026-05-01 15:11 | 29.37931 | 41.44461 | 39900 ft | 425 kts | 296° |
| 2026-05-01 15:12 | 29.41234 | 41.38830 | 39900 ft | 424 kts | 296° |
| 2026-05-01 15:12 | 29.46173 | 41.30391 | 39899 ft | 424 kts | 296° |
| 2026-05-01 15:14 | 29.54375 | 41.16343 | 39900 ft | 424 kts | 296° |
| 2026-05-01 15:14 | 29.59312 | 41.07864 | 39900 ft | 425 kts | 296° |
| 2026-05-01 15:15 | 29.65885 | 40.96546 | 39900 ft | 425 kts | 296° |
| 2026-05-01 15:16 | 29.72474 | 40.85153 | 39873 ft | 430 kts | 298° |
| 2026-05-01 15:18 | 29.80780 | 40.70781 | 39872 ft | 430 kts | 298° |
| 2026-05-01 15:19 | 29.87383 | 40.59311 | 39873 ft | 431 kts | 298° |
| 2026-05-01 15:19 | 29.92349 | 40.50662 | 39871 ft | 431 kts | 298° |
| 2026-05-01 15:20 | 29.97325 | 40.41977 | 39872 ft | 432 kts | 298° |
| 2026-05-01 15:21 | 30.00632 | 40.36195 | 39872 ft | 431 kts | 298° |
| 2026-05-01 15:21 | 30.03916 | 40.30444 | 39872 ft | 432 kts | 298° |
| 2026-05-01 15:22 | 30.08873 | 40.21751 | 39872 ft | 432 kts | 298° |
| 2026-05-01 15:22 | 30.12177 | 40.15946 | 39872 ft | 432 kts | 298° |
| 2026-05-01 15:23 | 30.15485 | 40.10126 | 39873 ft | 432 kts | 298° |
| 2026-05-01 15:23 | 30.18788 | 40.04305 | 39872 ft | 432 kts | 298° |
| 2026-05-01 15:24 | 30.22076 | 39.98502 | 39871 ft | 432 kts | 298° |
| 2026-05-01 15:24 | 30.25369 | 39.92683 | 39871 ft | 432 kts | 298° |
| 2026-05-01 15:25 | 30.28659 | 39.86859 | 39872 ft | 431 kts | 298° |
| 2026-05-01 15:25 | 30.31943 | 39.81041 | 39872 ft | 431 kts | 298° |
| 2026-05-01 15:26 | 30.35229 | 39.75209 | 39871 ft | 432 kts | 298° |
| 2026-05-01 15:26 | 30.38840 | 39.69595 | 39872 ft | 436 kts | 305° |
| 2026-05-01 15:27 | 30.43072 | 39.64495 | 39873 ft | 441 kts | 311° |
| 2026-05-01 15:28 | 30.50460 | 39.58034 | 39871 ft | 450 kts | 321° |
| 2026-05-01 15:28 | 30.55835 | 39.54246 | 39872 ft | 451 kts | 322° |
| 2026-05-01 15:29 | 30.62990 | 39.49248 | 39872 ft | 450 kts | 322° |
| 2026-05-01 15:30 | 30.73717 | 39.41729 | 39872 ft | 449 kts | 322° |
| 2026-05-01 15:31 | 30.89731 | 39.30466 | 39872 ft | 449 kts | 322° |
| 2026-05-01 15:32 | 30.99968 | 39.22329 | 39878 ft | 438 kts | 311° |
| 2026-05-01 15:33 | 31.05603 | 39.14111 | 39882 ft | 428 kts | 296° |
| 2026-05-01 15:34 | 31.09129 | 39.04637 | 39882 ft | 423 kts | 287° |